Time,TemperatureF,DewpointF,PressureIn,WindDirection,WindDirectionDegrees,WindSpeedMPH,WindSpeedGustMPH,Humidity,HourlyPrecipIn,Conditions,Clouds,dailyrainin,SoftwareType,DateUTC
2013-11-13 00:00:00,21.6,18.8,30.30,West,279,8.1,8.1,89,0.00,RA,,0.00,WeatherDisplay:10.37,2013-11-13 05:00:00,
2013-11-13 00:01:00,21.6,18.8,30.30,West,279,8.1,8.1,89,0.00,RA,,0.00,WeatherDisplay:10.37,2013-11-13 05:01:00,
2013-11-13 00:03:00,21.6,18.8,30.30,WNW,296,6.9,6.9,89,0.00,RA,,0.00,WeatherDisplay:10.37,2013-11-13 05:03:00,
2013-11-13 00:08:00,21.7,19.0,30.30,WNW,297,8.1,8.1,89,0.00,RA,,0.00,WeatherDisplay:10.37,2013-11-13 05:08:00,
2013-11-13 00:13:00,21.7,19.0,30.30,NW,312,8.1,8.1,89,0.00,OVC,,0.00,WeatherDisplay:10.37,2013-11-13 05:13:00,
2013-11-13 00:17:00,21.7,19.0,30.30,NW,324,8.1,8.1,89,0.00,OVC,,0.00,WeatherDisplay:10.37,2013-11-13 05:17:00,
2013-11-13 00:22:00,21.7,19.0,30.30,WNW,285,4.6,4.6,89,0.00,OVC,,0.00,WeatherDisplay:10.37,2013-11-13 05:22:00,
2013-11-13 00:27:00,21.9,19.2,30.30,WNW,301,8.1,8.1,89,0.00,OVC,,0.00,WeatherDisplay:10.37,2013-11-13 05:27:00,
2013-11-13 00:32:00,21.9,19.2,30.30,NNW,341,10.4,10.4,89,0.00,OVC,,0.00,WeatherDisplay:10.37,2013-11-13 05:32:00,
2013-11-13 00:37:00,21.9,19.2,30.30,WNW,291,10.4,10.4,89,0.00,OVC,,0.00,WeatherDisplay:10.37,2013-11-13 05:37:00,
2013-11-13 00:42:00,21.9,19.2,30.30,West,273,9.6,9.6,89,0.00,OVC,,0.00,WeatherDisplay:10.37,2013-11-13 05:42:00,
2013-11-13 00:47:00,22.1,19.4,30.30,NW,320,9.2,9.2,89,0.00,OVC,,0.00,WeatherDisplay:10.37,2013-11-13 05:47:00,
2013-11-13 00:52:00,22.1,19.4,30.30,WNW,298,11.5,11.5,89,0.00,OVC,,0.00,WeatherDisplay:10.37,2013-11-13 05:52:00,
2013-11-13 00:57:00,22.3,19.5,30.30,North,353,8.1,8.1,89,0.00,OVC,,0.00,WeatherDisplay:10.37,2013-11-13 05:57:00,
2013-11-13 01:02:00,22.3,19.8,30.30,West,263,5.8,5.8,90,0.00,OVC,,0.00,WeatherDisplay:10.37,2013-11-13 06:02:00,
2013-11-13 01:07:00,22.3,20.1,30.27,WNW,300,15.0,15.0,91,0.00,OVC,,0.00,WeatherDisplay:10.37,2013-11-13 06:07:00,
2013-11-13 01:12:00,22.5,20.2,30.27,NW,322,10.4,10.4,91,0.00,OVC,,0.00,WeatherDisplay:10.37,2013-11-13 06:12:00,
2013-11-13 01:17:00,22.5,20.2,30.27,NW,315,10.9,10.9,91,0.00,OVC,,0.00,WeatherDisplay:10.37,2013-11-13 06:17:00,
2013-11-13 01:22:00,22.5,20.2,30.27,NW,325,15.0,15.0,91,0.00,OVC,,0.00,WeatherDisplay:10.37,2013-11-13 06:22:00,
2013-11-13 01:27:00,22.6,20.4,30.27,NNW,330,11.5,11.5,91,0.00,OVC,,0.00,WeatherDisplay:10.37,2013-11-13 06:27:00,
2013-11-13 01:32:00,22.6,20.4,30.27,NNW,346,8.1,8.1,91,0.00,OVC,,0.00,WeatherDisplay:10.37,2013-11-13 06:32:00,
2013-11-13 01:37:00,22.6,20.7,30.27,NNW,342,3.5,3.5,92,0.00,OVC,,0.00,WeatherDisplay:10.37,2013-11-13 06:37:00,
2013-11-13 01:42:00,22.8,20.8,30.27,NW,316,13.8,13.8,92,0.00,OVC,,0.00,WeatherDisplay:10.37,2013-11-13 06:42:00,
2013-11-13 01:47:00,22.8,20.8,30.27,NNW,328,11.5,11.5,92,0.00,OVC,,0.00,WeatherDisplay:10.37,2013-11-13 06:47:00,
2013-11-13 01:52:00,22.8,20.8,30.27,NW,306,11.5,11.5,92,0.00,OVC,,0.00,WeatherDisplay:10.37,2013-11-13 06:52:00,
2013-11-13 01:57:00,22.8,20.8,30.27,WNW,291,10.9,10.9,92,0.00,OVC,,0.00,WeatherDisplay:10.37,2013-11-13 06:57:00,
2013-11-13 02:02:00,23.0,21.0,30.27,WSW,257,12.7,12.7,92,0.00,OVC,,0.00,WeatherDisplay:10.37,2013-11-13 07:02:00,
2013-11-13 02:07:00,23.0,21.3,30.30,NW,304,6.9,6.9,93,0.00,OVC,,0.00,WeatherDisplay:10.37,2013-11-13 07:07:00,
2013-11-13 02:12:00,23.0,21.3,30.30,WNW,292,10.4,10.4,93,0.00,OVC,,0.00,WeatherDisplay:10.37,2013-11-13 07:12:00,
2013-11-13 02:17:00,23.0,21.3,30.30,NNW,339,15.0,15.0,93,0.00,OVC,,0.00,WeatherDisplay:10.37,2013-11-13 07:17:00,
2013-11-13 02:22:00,23.0,21.3,30.27,NNW,331,9.2,9.2,93,0.00,OVC,,0.00,WeatherDisplay:10.37,2013-11-13 07:22:00,
2013-11-13 02:27:00,23.0,21.3,30.27,NNW,341,8.1,8.1,93,0.00,OVC,,0.00,WeatherDisplay:10.37,2013-11-13 07:27:00,
2013-11-13 02:32:00,23.0,21.3,30.27,West,267,8.1,8.1,93,0.00,OVC,,0.00,WeatherDisplay:10.37,2013-11-13 07:32:00,
2013-11-13 02:37:00,23.0,21.3,30.27,WNW,300,9.2,9.2,93,0.00,OVC,,0.00,WeatherDisplay:10.37,2013-11-13 07:37:00,
2013-11-13 02:42:00,23.0,21.3,30.27,NW,304,5.8,5.8,93,0.00,OVC,,0.00,WeatherDisplay:10.37,2013-11-13 07:42:00,
2013-11-13 02:47:00,23.0,21.3,30.27,NW,315,11.5,11.5,93,0.00,OVC,,0.00,WeatherDisplay:10.37,2013-11-13 07:47:00,
2013-11-13 02:52:00,23.2,21.5,30.27,WNW,303,11.5,11.5,93,0.00,OVC,,0.00,WeatherDisplay:10.37,2013-11-13 07:52:00,
2013-11-13 02:57:00,23.0,21.3,30.27,NW,305,10.4,10.4,93,0.00,OVC,,0.00,WeatherDisplay:10.37,2013-11-13 07:57:00,
2013-11-13 03:02:00,23.0,21.3,30.27,SW,224,8.1,8.1,93,0.00,OVC,,0.00,WeatherDisplay:10.37,2013-11-13 08:02:00,
2013-11-13 03:07:00,23.0,21.3,30.27,NNW,328,12.7,12.7,93,0.00,OVC,,0.00,WeatherDisplay:10.37,2013-11-13 08:07:00,
2013-11-13 03:12:00,23.0,21.3,30.27,NW,319,15.0,15.0,93,0.00,OVC,,0.00,WeatherDisplay:10.37,2013-11-13 08:12:00,
2013-11-13 03:17:00,23.0,21.0,30.27,West,273,10.4,10.4,92,0.00,OVC,,0.00,WeatherDisplay:10.37,2013-11-13 08:17:00,
2013-11-13 03:22:00,23.0,21.0,30.27,NNW,346,9.2,9.2,92,0.00,OVC,,0.00,WeatherDisplay:10.37,2013-11-13 08:22:00,
2013-11-13 03:27:00,23.0,21.0,30.27,NNW,327,12.3,12.3,92,0.00,OVC,,0.00,WeatherDisplay:10.37,2013-11-13 08:27:00,
2013-11-13 03:32:00,23.0,21.0,30.27,NNW,327,9.2,9.2,92,0.00,OVC,,0.00,WeatherDisplay:10.37,2013-11-13 08:32:00,
2013-11-13 03:37:00,23.0,21.0,30.30,NNW,343,5.8,5.8,92,0.00,OVC,,0.00,WeatherDisplay:10.37,2013-11-13 08:37:00,
2013-11-13 03:42:00,22.8,21.1,30.30,NW,318,8.3,8.3,93,0.00,OVC,,0.00,WeatherDisplay:10.37,2013-11-13 08:42:00,
2013-11-13 03:47:00,22.8,21.1,30.30,NNW,332,12.7,12.7,93,0.00,OVC,,0.00,WeatherDisplay:10.37,2013-11-13 08:47:00,
2013-11-13 03:52:00,22.8,21.1,30.30,NW,316,9.2,9.2,93,0.00,OVC,,0.00,WeatherDisplay:10.37,2013-11-13 08:52:00,
2013-11-13 03:57:00,22.8,21.1,30.30,NNW,328,8.1,8.1,93,0.00,OVC,,0.00,WeatherDisplay:10.37,2013-11-13 08:57:00,
2013-11-13 04:03:00,22.8,21.1,30.30,NNW,332,9.2,9.2,93,0.00,OVC,,0.00,WeatherDisplay:10.37,2013-11-13 09:03:00,
2013-11-13 04:08:00,22.8,21.4,30.30,NW,317,9.2,9.2,94,0.00,OVC,,0.00,WeatherDisplay:10.37,2013-11-13 09:08:00,
2013-11-13 04:12:00,22.8,21.4,30.30,WNW,295,5.8,5.8,94,0.00,OVC,,0.00,WeatherDisplay:10.37,2013-11-13 09:12:00,
2013-11-13 04:17:00,22.8,21.4,30.30,NNW,335,12.7,12.7,94,0.00,OVC,,0.00,WeatherDisplay:10.37,2013-11-13 09:17:00,
2013-11-13 04:22:00,22.8,21.4,30.30,WNW,302,11.5,11.5,94,0.00,OVC,,0.00,WeatherDisplay:10.37,2013-11-13 09:22:00,
2013-11-13 04:27:00,22.8,21.4,30.30,NNW,341,10.4,10.4,94,0.00,OVC,,0.00,WeatherDisplay:10.37,2013-11-13 09:27:00,
2013-11-13 04:32:00,22.8,21.4,30.30,NW,323,10.4,10.4,94,0.00,OVC,,0.00,WeatherDisplay:10.37,2013-11-13 09:32:00,
2013-11-13 04:37:00,22.8,21.6,30.30,NW,312,10.4,10.4,95,0.00,OVC,,0.00,WeatherDisplay:10.37,2013-11-13 09:37:00,
2013-11-13 04:42:00,22.8,21.6,30.30,NNW,330,11.4,11.4,95,0.00,OVC,,0.00,WeatherDisplay:10.37,2013-11-13 09:42:00,
2013-11-13 04:47:00,22.8,21.6,30.30,NNW,341,8.1,8.1,95,0.00,OVC,,0.00,WeatherDisplay:10.37,2013-11-13 09:47:00,
2013-11-13 04:52:00,22.8,21.6,30.30,WNW,294,13.2,13.2,95,0.00,OVC,,0.00,WeatherDisplay:10.37,2013-11-13 09:52:00,
2013-11-13 04:57:00,22.8,21.6,30.30,NW,313,11.5,11.5,95,0.00,OVC,,0.00,WeatherDisplay:10.37,2013-11-13 09:57:00,
2013-11-13 05:02:00,22.8,21.6,30.30,NW,319,5.8,5.8,95,0.00,-SN,,0.00,WeatherDisplay:10.37,2013-11-13 10:02:00,
2013-11-13 05:07:00,23.0,21.8,30.30,North,349,8.1,8.1,95,0.00,-SN,,0.00,WeatherDisplay:10.37,2013-11-13 10:07:00,
2013-11-13 05:12:00,23.0,21.8,30.30,WNW,294,12.7,12.7,95,0.00,-SN,,0.00,WeatherDisplay:10.37,2013-11-13 10:12:00,
2013-11-13 05:17:00,23.0,21.8,30.30,NNE,14,10.4,10.4,95,0.00,-SN,,0.00,WeatherDisplay:10.37,2013-11-13 10:17:00,
2013-11-13 05:22:00,23.0,21.5,30.30,NNW,341,6.9,6.9,94,0.00,-SN,,0.00,WeatherDisplay:10.37,2013-11-13 10:22:00,
2013-11-13 05:27:00,23.0,21.5,30.30,NW,309,5.8,5.8,94,0.00,-SN,,0.00,WeatherDisplay:10.37,2013-11-13 10:27:00,
2013-11-13 05:33:00,23.0,21.5,30.30,NW,309,11.5,11.5,94,0.00,-SN,,0.00,WeatherDisplay:10.37,2013-11-13 10:33:00,
2013-11-13 05:38:00,23.0,21.5,30.30,NW,320,8.3,8.3,94,0.00,-SN,,0.00,WeatherDisplay:10.37,2013-11-13 10:38:00,
2013-11-13 05:43:00,23.0,21.5,30.30,NW,325,15.0,15.0,94,0.00,-SN,,0.00,WeatherDisplay:10.37,2013-11-13 10:43:00,
2013-11-13 05:48:00,23.0,21.5,30.30,WNW,299,9.2,9.2,94,0.00,-SN,,0.00,WeatherDisplay:10.37,2013-11-13 10:48:00,
2013-11-13 05:53:00,23.0,21.8,30.30,NW,324,10.4,10.4,95,0.00,-SN,,0.00,WeatherDisplay:10.37,2013-11-13 10:53:00,
2013-11-13 05:58:00,23.0,21.8,30.30,NW,324,9.2,9.2,95,0.00,-SN,,0.00,WeatherDisplay:10.37,2013-11-13 10:58:00,
2013-11-13 06:03:00,23.0,21.8,30.30,NW,319,11.5,11.5,95,0.00,-SN,,0.00,WeatherDisplay:10.37,2013-11-13 11:03:00,
2013-11-13 06:08:00,23.0,21.8,30.30,NNW,329,12.7,12.7,95,0.00,-SN,,0.00,WeatherDisplay:10.37,2013-11-13 11:08:00,
2013-11-13 06:13:00,23.0,21.8,30.30,NNW,343,11.5,11.5,95,0.00,-SN,,0.00,WeatherDisplay:10.37,2013-11-13 11:13:00,
2013-11-13 06:18:00,22.8,21.6,30.30,NNW,335,12.7,12.7,95,0.00,-SN,,0.00,WeatherDisplay:10.37,2013-11-13 11:18:00,
2013-11-13 06:23:00,23.0,21.8,30.30,WNW,290,10.4,10.4,95,0.00,-SN,,0.00,WeatherDisplay:10.37,2013-11-13 11:23:00,
2013-11-13 06:28:00,23.0,21.8,30.30,NW,322,9.2,9.2,95,0.00,-SN,,0.00,WeatherDisplay:10.37,2013-11-13 11:28:00,
2013-11-13 06:33:00,23.0,21.8,30.30,NW,319,15.0,15.0,95,0.00,-SN,,0.00,WeatherDisplay:10.37,2013-11-13 11:33:00,
2013-11-13 06:38:00,22.8,21.6,30.33,WNW,300,10.1,10.1,95,0.00,-SN,,0.00,WeatherDisplay:10.37,2013-11-13 11:38:00,
2013-11-13 06:43:00,23.0,21.8,30.33,WNW,285,10.4,10.4,95,0.00,-SN,,0.00,WeatherDisplay:10.37,2013-11-13 11:43:00,
2013-11-13 06:48:00,22.8,21.6,30.33,NW,316,5.8,5.8,95,0.00,-SN,,0.00,WeatherDisplay:10.37,2013-11-13 11:48:00,
2013-11-13 06:53:00,22.8,21.6,30.33,NW,314,13.8,13.8,95,0.00,-SN,,0.00,WeatherDisplay:10.37,2013-11-13 11:53:00,
2013-11-13 06:58:00,22.8,21.6,30.33,NW,309,10.4,10.4,95,0.00,-SN,,0.00,WeatherDisplay:10.37,2013-11-13 11:58:00,
2013-11-13 07:03:00,22.8,21.6,30.33,NW,325,9.2,9.2,95,0.00,-SN,,0.00,WeatherDisplay:10.37,2013-11-13 12:03:00,
2013-11-13 07:08:00,22.8,21.6,30.33,NW,326,12.7,12.7,95,0.00,-SN,,0.00,WeatherDisplay:10.37,2013-11-13 12:08:00,
2013-11-13 07:13:00,22.8,21.6,30.33,NNW,333,12.7,12.7,95,0.00,-SN,,0.00,WeatherDisplay:10.37,2013-11-13 12:13:00,
2013-11-13 07:18:00,22.8,21.6,30.33,NW,324,5.8,6.7,95,0.00,-SN,,0.00,WeatherDisplay:10.37,2013-11-13 12:18:00,
2013-11-13 07:23:00,22.8,21.6,30.33,NW,312,5.8,5.8,95,0.00,-SN,,0.00,WeatherDisplay:10.37,2013-11-13 12:23:00,
2013-11-13 07:28:00,22.8,21.6,30.33,NW,323,8.1,8.1,95,0.00,-SN,,0.00,WeatherDisplay:10.37,2013-11-13 12:28:00,
2013-11-13 07:33:00,22.8,21.6,30.33,NW,320,10.4,10.4,95,0.00,-SN,,0.00,WeatherDisplay:10.37,2013-11-13 12:33:00,
2013-11-13 07:38:00,22.8,21.6,30.33,WNW,291,9.2,9.2,95,0.00,-SN,,0.00,WeatherDisplay:10.37,2013-11-13 12:38:00,
2013-11-13 07:43:00,22.8,21.6,30.33,NW,307,8.1,8.1,95,0.00,-SN,,0.00,WeatherDisplay:10.37,2013-11-13 12:43:00,
2013-11-13 07:48:00,22.8,21.6,30.33,NW,317,9.2,9.2,95,0.00,-SN,,0.00,WeatherDisplay:10.37,2013-11-13 12:48:00,
2013-11-13 07:53:00,22.8,21.6,30.33,NW,310,5.8,5.8,95,0.00,-SN,,0.00,WeatherDisplay:10.37,2013-11-13 12:53:00,
2013-11-13 07:58:00,22.8,21.6,30.33,NNW,348,8.1,8.1,95,0.00,-SN,,0.00,WeatherDisplay:10.37,2013-11-13 12:58:00,
2013-11-13 08:03:00,23.0,21.8,30.33,NW,310,15.4,15.4,95,0.00,-SN,,0.00,WeatherDisplay:10.37,2013-11-13 13:03:00,
2013-11-13 08:08:00,23.0,22.0,30.33,WNW,297,10.4,10.4,96,0.00,-SN,,0.00,WeatherDisplay:10.37,2013-11-13 13:08:00,
2013-11-13 08:13:00,23.0,22.0,30.33,WNW,300,7.6,7.6,96,0.00,-SN,,0.00,WeatherDisplay:10.37,2013-11-13 13:13:00,
2013-11-13 08:18:00,23.2,22.0,30.33,NNW,327,3.5,3.6,95,0.00,-SN,,0.00,WeatherDisplay:10.37,2013-11-13 13:18:00,
2013-11-13 08:23:00,23.2,22.0,30.33,WNW,300,11.5,11.5,95,0.00,-SN,,0.00,WeatherDisplay:10.37,2013-11-13 13:23:00,
2013-11-13 08:28:00,23.2,22.0,30.33,NNW,333,10.4,10.4,95,0.00,-SN,,0.00,WeatherDisplay:10.37,2013-11-13 13:28:00,
2013-11-13 08:33:00,23.4,22.1,30.33,North,353,10.4,10.4,95,0.00,-SN,,0.00,WeatherDisplay:10.37,2013-11-13 13:33:00,
2013-11-13 08:38:00,23.4,22.1,30.33,WNW,292,8.1,8.1,95,0.00,-SN,,0.00,WeatherDisplay:10.37,2013-11-13 13:38:00,
2013-11-13 08:43:00,23.5,22.3,30.33,WNW,295,5.8,5.8,95,0.00,-SN,,0.00,WeatherDisplay:10.37,2013-11-13 13:43:00,
2013-11-13 08:48:00,23.5,22.3,30.33,NNW,338,10.9,10.9,95,0.00,-SN,,0.00,WeatherDisplay:10.37,2013-11-13 13:48:00,
2013-11-13 08:53:00,23.7,22.5,30.36,NW,314,3.5,3.5,95,0.00,-SN,,0.00,WeatherDisplay:10.37,2013-11-13 13:53:00,
2013-11-13 08:58:00,23.7,22.5,30.36,NW,326,11.5,11.5,95,0.00,-SN,,0.00,WeatherDisplay:10.37,2013-11-13 13:58:00,
2013-11-13 09:03:00,23.7,22.5,30.36,NW,308,6.9,6.9,95,0.00,-SN,,0.00,WeatherDisplay:10.37,2013-11-13 14:03:00,
2013-11-13 09:08:00,23.7,22.5,30.36,WNW,286,10.1,10.1,95,0.00,-SN,,0.00,WeatherDisplay:10.37,2013-11-13 14:08:00,
2013-11-13 09:13:00,23.7,22.2,30.36,WNW,292,12.7,12.7,94,0.00,-SN,,0.00,WeatherDisplay:10.37,2013-11-13 14:13:00,
2013-11-13 09:18:00,23.9,22.4,30.36,WNW,295,4.6,4.6,94,0.00,-SN,,0.00,WeatherDisplay:10.37,2013-11-13 14:18:00,
2013-11-13 09:23:00,24.1,22.6,30.36,North,0,9.2,9.2,94,0.00,-SN,,0.00,WeatherDisplay:10.37,2013-11-13 14:23:00,
2013-11-13 09:28:00,24.1,22.6,30.36,NNW,340,5.8,5.8,94,0.00,-SN,,0.00,WeatherDisplay:10.37,2013-11-13 14:28:00,
2013-11-13 09:33:00,24.3,22.5,30.36,NW,310,8.1,8.1,93,0.00,-SN,,0.00,WeatherDisplay:10.37,2013-11-13 14:33:00,
2013-11-13 09:38:00,24.8,23.1,30.36,NNW,342,8.1,8.1,93,0.00,-SN,,0.00,WeatherDisplay:10.37,2013-11-13 14:38:00,
2013-11-13 09:43:00,24.8,22.3,30.36,WNW,285,12.7,12.7,90,0.00,-SN,,0.00,WeatherDisplay:10.37,2013-11-13 14:43:00,
2013-11-13 09:48:00,24.8,22.3,30.36,West,273,8.1,8.1,90,0.00,-SN,,0.00,WeatherDisplay:10.37,2013-11-13 14:48:00,
2013-11-13 09:53:00,24.8,22.0,30.36,NW,305,9.2,9.2,89,0.00,-SN,,0.00,WeatherDisplay:10.37,2013-11-13 14:53:00,
2013-11-13 09:58:00,25.0,22.2,30.36,NW,304,8.1,8.1,89,0.00,-SN,,0.00,WeatherDisplay:10.37,2013-11-13 14:58:00,
2013-11-13 10:03:00,25.7,22.9,30.36,West,280,10.4,10.4,89,0.00,-SN,,0.00,WeatherDisplay:10.37,2013-11-13 15:03:00,
2013-11-13 10:08:00,26.1,22.7,30.36,West,271,15.0,15.0,87,0.00,-SN,,0.00,WeatherDisplay:10.37,2013-11-13 15:08:00,
2013-11-13 10:13:00,25.9,21.7,30.36,WNW,287,10.4,10.4,84,0.00,-SN,,0.00,WeatherDisplay:10.37,2013-11-13 15:13:00,
2013-11-13 10:18:00,25.9,22.0,30.36,WSW,251,6.3,6.3,85,0.00,-SN,,0.00,WeatherDisplay:10.37,2013-11-13 15:18:00,
2013-11-13 10:23:00,25.7,21.3,30.36,WNW,287,12.7,12.7,83,0.00,-SN,,0.00,WeatherDisplay:10.37,2013-11-13 15:23:00,
2013-11-13 10:28:00,25.5,20.8,30.36,WNW,302,12.7,12.7,82,0.00,-SN,,0.00,WeatherDisplay:10.37,2013-11-13 15:28:00,
2013-11-13 10:33:00,25.5,20.8,30.36,NNW,330,12.7,12.7,82,0.00,-SN,,0.00,WeatherDisplay:10.37,2013-11-13 15:33:00,
2013-11-13 10:38:00,25.3,20.6,30.36,WNW,292,8.1,8.1,82,0.00,-SN,,0.00,WeatherDisplay:10.37,2013-11-13 15:38:00,
2013-11-13 10:43:00,25.5,20.8,30.36,North,0,11.5,11.5,82,0.00,-SN,,0.00,WeatherDisplay:10.37,2013-11-13 15:43:00,
2013-11-13 10:49:00,25.9,21.4,30.36,NW,316,8.1,8.1,83,0.00,-SN,,0.00,WeatherDisplay:10.37,2013-11-13 15:49:00,
2013-11-13 10:54:00,25.5,20.8,30.36,NW,311,9.2,9.2,82,0.00,BKN,,0.00,WeatherDisplay:10.37,2013-11-13 15:54:00,
2013-11-13 10:59:00,25.5,20.8,30.36,WNW,287,11.5,11.5,82,0.00,BKN,,0.00,WeatherDisplay:10.37,2013-11-13 15:59:00,
2013-11-13 11:04:00,25.9,21.4,30.36,WNW,292,9.2,9.2,83,0.00,OVC,,0.00,WeatherDisplay:10.37,2013-11-13 16:04:00,
2013-11-13 11:09:00,26.8,22.3,30.36,WSW,250,3.6,3.6,83,0.00,OVC,,0.00,WeatherDisplay:10.37,2013-11-13 16:09:00,
2013-11-13 11:14:00,27.1,22.4,30.36,WNW,294,8.3,8.3,82,0.00,OVC,,0.00,WeatherDisplay:10.37,2013-11-13 16:14:00,
2013-11-13 11:19:00,27.3,22.5,30.36,NW,310,9.2,9.2,82,0.00,OVC,,0.00,WeatherDisplay:10.37,2013-11-13 16:19:00,
2013-11-13 11:24:00,27.3,22.5,30.36,NNW,338,8.7,8.7,82,0.00,OVC,,0.00,WeatherDisplay:10.37,2013-11-13 16:24:00,
2013-11-13 11:29:00,27.3,22.3,30.36,NNW,344,10.4,10.4,81,0.00,OVC,,0.00,WeatherDisplay:10.37,2013-11-13 16:29:00,
2013-11-13 11:34:00,27.3,22.3,30.36,West,277,10.5,10.5,81,0.00,OVC,,0.00,WeatherDisplay:10.37,2013-11-13 16:34:00,
2013-11-13 11:39:00,27.0,21.9,30.36,WNW,299,10.4,10.4,81,0.00,OVC,,0.00,WeatherDisplay:10.37,2013-11-13 16:39:00,
2013-11-13 11:44:00,27.1,22.1,30.36,NW,306,10.4,10.4,81,0.00,OVC,,0.00,WeatherDisplay:10.37,2013-11-13 16:44:00,
2013-11-13 11:49:00,27.9,22.8,30.36,WNW,299,9.2,9.2,81,0.00,OVC,,0.00,WeatherDisplay:10.37,2013-11-13 16:49:00,
2013-11-13 11:54:00,27.9,22.5,30.33,NNW,329,10.4,10.4,80,0.00,OVC,,0.00,WeatherDisplay:10.37,2013-11-13 16:54:00,
2013-11-13 11:59:00,27.9,22.5,30.33,NNW,333,10.4,10.4,80,0.00,OVC,,0.00,WeatherDisplay:10.37,2013-11-13 16:59:00,
2013-11-13 12:04:00,27.3,22.0,30.33,NNW,328,8.3,8.3,80,0.00,OVC,,0.00,WeatherDisplay:10.37,2013-11-13 17:04:00,
2013-11-13 12:09:00,27.5,22.1,30.33,West,276,10.4,10.4,80,0.00,OVC,,0.00,WeatherDisplay:10.37,2013-11-13 17:09:00,
2013-11-13 12:14:00,28.0,22.7,30.33,NNW,341,10.4,10.4,80,0.00,OVC,,0.00,WeatherDisplay:10.37,2013-11-13 17:14:00,
2013-11-13 12:19:00,28.6,23.2,30.33,West,281,12.7,12.7,80,0.00,OVC,,0.00,WeatherDisplay:10.37,2013-11-13 17:19:00,
2013-11-13 12:24:00,28.8,23.1,30.33,West,259,10.4,10.4,79,0.00,OVC,,0.00,WeatherDisplay:10.37,2013-11-13 17:24:00,
2013-11-13 12:29:00,28.8,23.1,30.33,WNW,288,17.3,17.3,79,0.00,OVC,,0.00,WeatherDisplay:10.37,2013-11-13 17:29:00,
2013-11-13 12:34:00,29.1,23.4,30.33,WSW,255,11.5,11.5,79,0.00,OVC,,0.00,WeatherDisplay:10.37,2013-11-13 17:34:00,
2013-11-13 12:39:00,30.2,23.9,30.33,WNW,284,8.1,8.1,77,0.00,OVC,,0.00,WeatherDisplay:10.37,2013-11-13 17:39:00,
2013-11-13 12:44:00,29.3,23.0,30.33,WNW,285,5.8,5.8,77,0.00,OVC,,0.00,WeatherDisplay:10.37,2013-11-13 17:44:00,
2013-11-13 12:49:00,29.3,22.4,30.33,NW,311,11.5,11.5,75,0.00,OVC,,0.00,WeatherDisplay:10.37,2013-11-13 17:49:00,
2013-11-13 12:54:00,29.5,22.5,30.33,NNW,331,9.2,9.2,75,0.00,OVC,,0.00,WeatherDisplay:10.37,2013-11-13 17:54:00,
2013-11-13 12:59:00,29.3,22.4,30.33,NW,313,8.1,8.1,75,0.00,OVC,,0.00,WeatherDisplay:10.37,2013-11-13 17:59:00,
2013-11-13 13:04:00,29.1,22.2,30.30,North,0,8.1,8.1,75,0.00,OVC,,0.00,WeatherDisplay:10.37,2013-11-13 18:04:00,
2013-11-13 13:09:00,29.3,21.7,30.30,North,353,10.4,10.4,73,0.04,RA,,0.04,WeatherDisplay:10.37,2013-11-13 18:09:00,
2013-11-13 13:14:00,29.5,21.9,30.30,WNW,292,8.3,8.3,73,0.04,RA,,0.04,WeatherDisplay:10.37,2013-11-13 18:14:00,
2013-11-13 13:19:00,29.8,22.2,30.30,West,273,8.1,8.1,73,0.04,OVC,,0.04,WeatherDisplay:10.37,2013-11-13 18:19:00,
2013-11-13 13:24:00,30.0,22.4,30.30,NW,306,5.8,5.8,73,0.04,OVC,,0.04,WeatherDisplay:10.37,2013-11-13 18:24:00,
2013-11-13 13:29:00,30.0,22.4,30.30,NW,326,11.5,11.5,73,0.04,OVC,,0.04,WeatherDisplay:10.37,2013-11-13 18:29:00,
2013-11-13 13:34:00,29.3,21.7,30.30,NNW,327,10.9,10.9,73,0.04,OVC,,0.04,WeatherDisplay:10.37,2013-11-13 18:34:00,
2013-11-13 13:39:00,28.8,21.2,30.30,NW,326,13.8,13.8,73,0.04,OVC,,0.04,WeatherDisplay:10.37,2013-11-13 18:39:00,
2013-11-13 13:44:00,28.9,21.4,30.30,NW,323,8.0,8.0,73,0.04,OVC,,0.04,WeatherDisplay:10.37,2013-11-13 18:44:00,
2013-11-13 13:49:00,28.9,21.4,30.30,WNW,291,10.4,10.4,73,0.04,OVC,,0.04,WeatherDisplay:10.37,2013-11-13 18:49:00,
2013-11-13 13:54:00,29.7,22.1,30.30,WNW,297,5.8,5.8,73,0.04,OVC,,0.04,WeatherDisplay:10.37,2013-11-13 18:54:00,
2013-11-13 13:59:00,30.6,22.9,30.30,West,276,10.4,10.4,73,0.04,OVC,,0.04,WeatherDisplay:10.37,2013-11-13 18:59:00,
2013-11-13 14:04:00,30.9,23.3,30.30,West,268,8.3,8.3,73,0.04,CLR,,0.04,WeatherDisplay:10.37,2013-11-13 19:04:00,
2013-11-13 14:09:00,31.1,23.5,30.30,North,353,5.8,5.8,73,0.00,CLR,,0.04,WeatherDisplay:10.37,2013-11-13 19:09:00,
2013-11-13 14:14:00,31.5,23.8,30.30,NNW,340,11.5,11.5,73,0.00,CLR,,0.04,WeatherDisplay:10.37,2013-11-13 19:14:00,
2013-11-13 14:19:00,31.1,23.5,30.30,WNW,286,8.1,8.1,73,0.00,CLR,,0.04,WeatherDisplay:10.37,2013-11-13 19:19:00,
2013-11-13 14:24:00,30.9,23.3,30.30,WNW,283,12.7,12.7,73,0.00,CLR,,0.04,WeatherDisplay:10.37,2013-11-13 19:24:00,
2013-11-13 14:29:00,31.1,23.5,30.30,NNW,332,8.1,8.1,73,0.00,CLR,,0.04,WeatherDisplay:10.37,2013-11-13 19:29:00,
2013-11-13 14:34:00,31.3,23.6,30.30,NNW,337,12.7,12.7,73,0.00,CLR,,0.04,WeatherDisplay:10.37,2013-11-13 19:34:00,
2013-11-13 14:39:00,31.3,23.6,30.30,West,271,11.5,11.5,73,0.00,CLR,,0.04,WeatherDisplay:10.37,2013-11-13 19:39:00,
2013-11-13 14:44:00,31.3,23.6,30.30,WSW,242,10.4,10.4,73,0.00,CLR,,0.04,WeatherDisplay:10.37,2013-11-13 19:44:00,
2013-11-13 14:49:00,30.9,23.3,30.30,West,272,13.6,13.6,73,0.00,CLR,,0.04,WeatherDisplay:10.37,2013-11-13 19:49:00,
2013-11-13 14:54:00,30.7,23.1,30.30,NNW,336,15.0,15.0,73,0.00,CLR,,0.04,WeatherDisplay:10.37,2013-11-13 19:54:00,
2013-11-13 14:59:00,30.2,22.6,30.30,WNW,285,12.7,12.7,73,0.00,CLR,,0.04,WeatherDisplay:10.37,2013-11-13 19:59:00,
2013-11-13 15:04:00,30.0,22.4,30.30,WNW,302,19.6,19.6,73,0.00,CLR,,0.04,WeatherDisplay:10.37,2013-11-13 20:04:00,
2013-11-13 15:09:00,29.8,22.2,30.30,West,266,10.5,10.5,73,0.00,CLR,,0.04,WeatherDisplay:10.37,2013-11-13 20:09:00,
2013-11-13 15:14:00,29.7,22.1,30.30,WNW,292,13.8,13.8,73,0.00,CLR,,0.04,WeatherDisplay:10.37,2013-11-13 20:14:00,
2013-11-13 15:19:00,29.7,22.1,30.30,NW,317,17.3,17.3,73,0.00,CLR,,0.04,WeatherDisplay:10.37,2013-11-13 20:19:00,
2013-11-13 15:24:00,29.7,22.1,30.30,West,276,10.4,10.4,73,0.00,CLR,,0.04,WeatherDisplay:10.37,2013-11-13 20:24:00,
2013-11-13 15:29:00,29.8,22.2,30.30,West,281,11.5,11.5,73,0.00,CLR,,0.04,WeatherDisplay:10.37,2013-11-13 20:29:00,
2013-11-13 15:35:00,29.7,22.1,30.30,West,272,11.5,11.5,73,0.00,CLR,,0.04,WeatherDisplay:10.37,2013-11-13 20:35:00,
2013-11-13 15:40:00,29.5,21.9,30.30,West,266,8.1,8.1,73,0.00,CLR,,0.04,WeatherDisplay:10.37,2013-11-13 20:40:00,
2013-11-13 15:45:00,29.3,21.7,30.30,NNW,337,8.1,8.1,73,0.00,CLR,,0.04,WeatherDisplay:10.37,2013-11-13 20:45:00,
2013-11-13 15:50:00,29.3,21.7,30.30,NW,326,10.4,10.4,73,0.00,CLR,,0.04,WeatherDisplay:10.37,2013-11-13 20:50:00,
2013-11-13 15:55:00,29.1,21.5,30.30,NW,323,10.4,10.4,73,0.00,CLR,,0.04,WeatherDisplay:10.37,2013-11-13 20:55:00,
2013-11-13 16:00:00,29.1,21.5,30.30,West,266,8.1,8.1,73,0.00,CLR,,0.04,WeatherDisplay:10.37,2013-11-13 21:00:00,
2013-11-13 16:05:00,28.9,21.4,30.30,West,260,12.7,12.7,73,0.00,CLR,,0.04,WeatherDisplay:10.37,2013-11-13 21:05:00,
2013-11-13 16:10:00,28.8,21.2,30.30,WNW,284,17.3,17.3,73,0.00,CLR,,0.04,WeatherDisplay:10.37,2013-11-13 21:10:00,
2013-11-13 16:15:00,28.8,21.2,30.30,WNW,286,15.4,15.4,73,0.00,CLR,,0.04,WeatherDisplay:10.37,2013-11-13 21:15:00,
2013-11-13 16:20:00,28.6,21.0,30.30,WNW,300,15.0,15.0,73,0.00,CLR,,0.04,WeatherDisplay:10.37,2013-11-13 21:20:00,
2013-11-13 16:25:00,28.6,21.0,30.30,West,281,6.9,6.9,73,0.00,CLR,,0.04,WeatherDisplay:10.37,2013-11-13 21:25:00,
2013-11-13 16:30:00,28.4,20.8,30.30,West,268,12.7,12.7,73,0.00,CLR,,0.04,WeatherDisplay:10.37,2013-11-13 21:30:00,
2013-11-13 16:35:00,28.4,20.8,30.27,WNW,290,12.7,12.7,73,0.00,CLR,,0.04,WeatherDisplay:10.37,2013-11-13 21:35:00,
2013-11-13 16:40:00,28.2,20.7,30.27,WNW,286,10.4,10.4,73,0.00,CLR,,0.04,WeatherDisplay:10.37,2013-11-13 21:40:00,
2013-11-13 16:45:00,28.2,20.7,30.27,WSW,249,21.9,21.9,73,0.00,CLR,,0.04,WeatherDisplay:10.37,2013-11-13 21:45:00,
2013-11-13 16:50:00,28.0,20.5,30.27,West,267,11.5,11.5,73,0.00,CLR,,0.04,WeatherDisplay:10.37,2013-11-13 21:50:00,
2013-11-13 16:55:00,27.9,20.3,30.27,WSW,256,8.1,8.1,73,0.00,CLR,,0.04,WeatherDisplay:10.37,2013-11-13 21:55:00,
2013-11-13 17:00:00,27.7,20.2,30.27,SW,231,9.2,9.2,73,0.00,CLR,,0.04,WeatherDisplay:10.37,2013-11-13 22:00:00,
2013-11-13 17:05:00,27.7,20.2,30.27,WNW,301,9.2,9.2,73,0.00,CLR,,0.04,WeatherDisplay:10.37,2013-11-13 22:05:00,
2013-11-13 17:10:00,27.5,20.0,30.27,WNW,295,11.5,11.5,73,0.00,CLR,,0.04,WeatherDisplay:10.37,2013-11-13 22:10:00,
2013-11-13 17:15:00,27.5,20.0,30.27,NW,316,5.8,5.8,73,0.00,CLR,,0.04,WeatherDisplay:10.37,2013-11-13 22:15:00,
2013-11-13 17:20:00,27.3,19.8,30.30,West,274,4.6,4.6,73,0.00,CLR,,0.04,WeatherDisplay:10.37,2013-11-13 22:20:00,
2013-11-13 17:26:00,27.1,19.6,30.30,West,266,8.1,8.1,73,0.00,CLR,,0.04,WeatherDisplay:10.37,2013-11-13 22:26:00,
2013-11-13 17:31:00,27.1,19.6,30.30,West,276,5.8,5.8,73,0.00,CLR,,0.04,WeatherDisplay:10.37,2013-11-13 22:31:00,
2013-11-13 17:36:00,27.0,19.5,30.30,West,274,8.1,8.1,73,0.00,CLR,,0.04,WeatherDisplay:10.37,2013-11-13 22:36:00,
2013-11-13 17:41:00,27.0,19.5,30.30,West,275,3.6,3.6,73,0.00,CLR,,0.04,WeatherDisplay:10.37,2013-11-13 22:41:00,
2013-11-13 17:46:00,26.8,19.3,30.30,NW,305,5.8,5.8,73,0.00,CLR,,0.04,WeatherDisplay:10.37,2013-11-13 22:46:00,
2013-11-13 17:51:00,26.8,19.3,30.30,WNW,289,3.5,3.5,73,0.00,CLR,,0.04,WeatherDisplay:10.37,2013-11-13 22:51:00,
2013-11-13 17:56:00,26.8,19.3,30.30,WNW,294,8.1,8.1,73,0.00,CLR,,0.04,WeatherDisplay:10.37,2013-11-13 22:56:00,
2013-11-13 18:01:00,26.6,19.4,30.30,WSW,238,12.7,12.7,74,0.00,CLR,,0.04,WeatherDisplay:10.37,2013-11-13 23:01:00,
2013-11-13 18:06:00,26.8,19.3,30.30,North,8,10.4,10.4,73,0.00,CLR,,0.04,WeatherDisplay:10.37,2013-11-13 23:06:00,
2013-11-13 18:11:00,26.8,19.3,30.30,WNW,283,8.1,8.1,73,0.00,CLR,,0.04,WeatherDisplay:10.37,2013-11-13 23:11:00,
2013-11-13 18:16:00,26.8,19.3,30.30,WSW,257,9.2,9.2,73,0.00,CLR,,0.04,WeatherDisplay:10.37,2013-11-13 23:16:00,
2013-11-13 18:21:00,26.6,19.4,30.30,SSW,208,8.1,8.1,74,0.00,CLR,,0.04,WeatherDisplay:10.37,2013-11-13 23:21:00,
2013-11-13 18:26:00,26.6,19.4,30.30,WSW,257,9.2,9.2,74,0.00,CLR,,0.04,WeatherDisplay:10.37,2013-11-13 23:26:00,
2013-11-13 18:31:00,26.6,19.4,30.30,WSW,253,10.5,10.5,74,0.00,CLR,,0.04,WeatherDisplay:10.37,2013-11-13 23:31:00,
2013-11-13 18:36:00,26.6,19.4,30.30,WNW,285,12.7,12.7,74,0.00,CLR,,0.04,WeatherDisplay:10.37,2013-11-13 23:36:00,
2013-11-13 18:41:00,26.6,19.4,30.30,SW,227,10.4,10.4,74,0.00,CLR,,0.04,WeatherDisplay:10.37,2013-11-13 23:41:00,
2013-11-13 18:46:00,26.6,19.4,30.30,West,273,9.2,9.2,74,0.00,CLR,,0.04,WeatherDisplay:10.37,2013-11-13 23:46:00,
2013-11-13 18:51:00,26.4,19.3,30.30,WNW,298,6.9,6.9,74,0.00,CLR,,0.04,WeatherDisplay:10.37,2013-11-13 23:51:00,
2013-11-13 18:56:00,26.4,19.3,30.30,SW,220,5.8,5.8,74,0.00,CLR,,0.04,WeatherDisplay:10.37,2013-11-13 23:56:00,
2013-11-13 19:01:00,26.4,19.3,30.30,West,275,9.2,9.2,74,0.00,CLR,,0.04,WeatherDisplay:10.37,2013-11-14 00:01:00,
2013-11-13 19:06:00,26.4,19.3,30.30,West,270,5.8,5.8,74,0.00,CLR,,0.04,WeatherDisplay:10.37,2013-11-14 00:06:00,
2013-11-13 19:11:00,26.2,19.1,30.30,WSW,248,5.8,5.8,74,0.00,CLR,,0.04,WeatherDisplay:10.37,2013-11-14 00:11:00,
2013-11-13 19:16:00,26.2,19.1,30.30,West,264,9.2,9.2,74,0.00,CLR,,0.04,WeatherDisplay:10.37,2013-11-14 00:16:00,
2013-11-13 19:21:00,26.2,19.1,30.30,WNW,286,12.7,12.7,74,0.00,CLR,,0.04,WeatherDisplay:10.37,2013-11-14 00:21:00,
2013-11-13 19:26:00,26.2,19.1,30.30,West,281,10.4,10.4,74,0.00,CLR,,0.04,WeatherDisplay:10.37,2013-11-14 00:26:00,
2013-11-13 19:31:00,26.2,19.1,30.30,WSW,257,9.2,9.2,74,0.00,CLR,,0.04,WeatherDisplay:10.37,2013-11-14 00:31:00,
2013-11-13 19:36:00,26.1,18.9,30.27,West,272,8.1,8.1,74,0.00,CLR,,0.04,WeatherDisplay:10.37,2013-11-14 00:36:00,
2013-11-13 19:41:00,26.2,19.1,30.27,West,259,8.1,8.1,74,0.00,CLR,,0.04,WeatherDisplay:10.37,2013-11-14 00:41:00,
2013-11-13 19:46:00,26.1,18.9,30.27,West,265,12.7,12.7,74,0.00,CLR,,0.04,WeatherDisplay:10.37,2013-11-14 00:46:00,
2013-11-13 19:51:00,26.2,19.1,30.27,NW,311,8.1,8.1,74,0.00,CLR,,0.04,WeatherDisplay:10.37,2013-11-14 00:51:00,
2013-11-13 19:56:00,26.1,18.9,30.27,WNW,299,15.0,15.0,74,0.00,CLR,,0.04,WeatherDisplay:10.37,2013-11-14 00:56:00,
2013-11-13 20:01:00,26.2,19.1,30.27,NW,316,15.0,15.0,74,0.00,CLR,,0.04,WeatherDisplay:10.37,2013-11-14 01:01:00,
2013-11-13 20:06:00,26.2,19.1,30.27,WNW,291,15.0,15.0,74,0.00,CLR,,0.04,WeatherDisplay:10.37,2013-11-14 01:06:00,
2013-11-13 20:11:00,26.2,19.1,30.27,West,271,10.4,10.4,74,0.00,CLR,,0.04,WeatherDisplay:10.37,2013-11-14 01:11:00,
2013-11-13 20:16:00,26.2,19.1,30.27,WSW,254,5.8,5.8,74,0.00,CLR,,0.04,WeatherDisplay:10.37,2013-11-14 01:16:00,
2013-11-13 20:21:00,26.1,18.9,30.27,West,269,9.2,9.2,74,0.00,CLR,,0.04,WeatherDisplay:10.37,2013-11-14 01:21:00,
2013-11-13 20:26:00,26.1,18.9,30.27,West,271,9.2,9.2,74,0.00,CLR,,0.04,WeatherDisplay:10.37,2013-11-14 01:26:00,
2013-11-13 20:31:00,26.1,18.9,30.27,WSW,257,8.1,8.1,74,0.00,CLR,,0.04,WeatherDisplay:10.37,2013-11-14 01:31:00,
2013-11-13 20:36:00,26.1,18.9,30.27,WSW,246,15.0,15.0,74,0.00,CLR,,0.04,WeatherDisplay:10.37,2013-11-14 01:36:00,
2013-11-13 20:41:00,26.1,18.9,30.27,WNW,299,11.5,11.5,74,0.00,CLR,,0.04,WeatherDisplay:10.37,2013-11-14 01:41:00,
2013-11-13 20:46:00,26.1,18.9,30.27,WSW,239,12.7,12.7,74,0.00,CLR,,0.04,WeatherDisplay:10.37,2013-11-14 01:46:00,
2013-11-13 20:51:00,25.9,18.7,30.27,West,267,8.0,8.0,74,0.00,CLR,,0.04,WeatherDisplay:10.37,2013-11-14 01:51:00,
2013-11-13 20:56:00,25.9,18.7,30.27,SW,218,9.2,9.2,74,0.00,CLR,,0.04,WeatherDisplay:10.37,2013-11-14 01:56:00,
2013-11-13 21:01:00,25.9,18.7,30.27,West,279,8.1,8.1,74,0.00,CLR,,0.04,WeatherDisplay:10.37,2013-11-14 02:01:00,
2013-11-13 21:06:00,25.9,19.4,30.27,West,260,11.5,11.5,76,0.00,CLR,,0.04,WeatherDisplay:10.37,2013-11-14 02:06:00,
2013-11-13 21:11:00,25.9,19.4,30.27,WNW,300,12.7,12.7,76,0.00,CLR,,0.04,WeatherDisplay:10.37,2013-11-14 02:11:00,
2013-11-13 21:16:00,25.9,19.4,30.27,WNW,298,8.1,8.1,76,0.00,CLR,,0.04,WeatherDisplay:10.37,2013-11-14 02:16:00,
2013-11-13 21:21:00,25.9,19.4,30.27,WNW,297,6.3,6.3,76,0.00,CLR,,0.04,WeatherDisplay:10.37,2013-11-14 02:21:00,
2013-11-13 21:26:00,25.9,19.4,30.27,NNE,14,9.2,9.2,76,0.00,CLR,,0.04,WeatherDisplay:10.37,2013-11-14 02:26:00,
2013-11-13 21:31:00,25.9,19.4,30.27,NNW,333,12.7,12.7,76,0.00,CLR,,0.04,WeatherDisplay:10.37,2013-11-14 02:31:00,
2013-11-13 21:36:00,25.9,19.4,30.27,West,277,7.6,7.6,76,0.00,CLR,,0.04,WeatherDisplay:10.37,2013-11-14 02:36:00,
2013-11-13 21:41:00,25.9,19.4,30.27,WNW,297,12.7,12.7,76,0.00,CLR,,0.04,WeatherDisplay:10.37,2013-11-14 02:41:00,
2013-11-13 21:46:00,25.9,19.4,30.27,NW,311,5.8,6.7,76,0.00,CLR,,0.04,WeatherDisplay:10.37,2013-11-14 02:46:00,
2013-11-13 21:51:00,25.7,19.2,30.27,West,263,5.8,5.8,76,0.00,CLR,,0.04,WeatherDisplay:10.37,2013-11-14 02:51:00,
2013-11-13 21:56:00,25.7,19.2,30.27,West,266,8.1,8.1,76,0.00,CLR,,0.04,WeatherDisplay:10.37,2013-11-14 02:56:00,
2013-11-13 22:01:00,25.7,19.2,30.27,West,264,9.2,9.2,76,0.00,CLR,,0.04,WeatherDisplay:10.37,2013-11-14 03:01:00,
2013-11-13 22:06:00,25.7,19.2,30.24,NW,312,9.2,9.2,76,0.00,CLR,,0.04,WeatherDisplay:10.37,2013-11-14 03:06:00,
2013-11-13 22:11:00,25.5,19.0,30.24,WSW,243,10.4,10.4,76,0.00,CLR,,0.04,WeatherDisplay:10.37,2013-11-14 03:11:00,
2013-11-13 22:16:00,25.7,19.2,30.24,West,274,6.3,6.3,76,0.00,CLR,,0.04,WeatherDisplay:10.37,2013-11-14 03:16:00,
2013-11-13 22:21:00,25.7,19.2,30.24,WNW,294,15.0,15.0,76,0.00,CLR,,0.04,WeatherDisplay:10.37,2013-11-14 03:21:00,
2013-11-13 22:26:00,25.7,19.2,30.24,SW,233,9.2,9.2,76,0.00,CLR,,0.04,WeatherDisplay:10.37,2013-11-14 03:26:00,
2013-11-13 22:31:00,25.7,19.2,30.24,West,278,12.7,12.7,76,0.00,CLR,,0.04,WeatherDisplay:10.37,2013-11-14 03:31:00,
2013-11-13 22:36:00,25.7,19.2,30.24,WSW,249,5.4,5.4,76,0.00,CLR,,0.04,WeatherDisplay:10.37,2013-11-14 03:36:00,
2013-11-13 22:41:00,25.9,19.4,30.24,West,266,12.7,12.7,76,0.00,CLR,,0.04,WeatherDisplay:10.37,2013-11-14 03:41:00,
2013-11-13 22:47:00,25.9,19.4,30.24,North,1,12.7,12.7,76,0.00,CLR,,0.04,WeatherDisplay:10.37,2013-11-14 03:47:00,
2013-11-13 22:52:00,25.9,19.4,30.24,WNW,303,10.4,10.4,76,0.00,CLR,,0.04,WeatherDisplay:10.37,2013-11-14 03:52:00,
2013-11-13 22:57:00,25.9,19.4,30.24,WNW,297,12.7,12.7,76,0.00,CLR,,0.04,WeatherDisplay:10.37,2013-11-14 03:57:00,
2013-11-13 23:02:00,25.7,19.2,30.24,WNW,300,10.4,10.4,76,0.00,CLR,,0.04,WeatherDisplay:10.37,2013-11-14 04:02:00,
2013-11-13 23:07:00,25.9,19.4,30.24,NNW,341,12.7,12.7,76,0.00,CLR,,0.04,WeatherDisplay:10.37,2013-11-14 04:07:00,
2013-11-13 23:12:00,25.9,19.4,30.24,WNW,292,12.7,12.7,76,0.00,CLR,,0.04,WeatherDisplay:10.37,2013-11-14 04:12:00,
2013-11-13 23:17:00,25.9,19.4,30.24,West,279,10.4,10.4,76,0.00,CLR,,0.04,WeatherDisplay:10.37,2013-11-14 04:17:00,
2013-11-13 23:22:00,25.9,19.4,30.24,West,270,8.1,8.1,76,0.00,CLR,,0.04,WeatherDisplay:10.37,2013-11-14 04:22:00,
2013-11-13 23:27:00,25.9,19.4,30.24,WNW,290,10.4,10.4,76,0.00,CLR,,0.04,WeatherDisplay:10.37,2013-11-14 04:27:00,
2013-11-13 23:32:00,25.9,19.4,30.24,SW,222,12.7,12.7,76,0.00,CLR,,0.04,WeatherDisplay:10.37,2013-11-14 04:32:00,
2013-11-13 23:37:00,25.9,19.4,30.24,NW,305,5.8,5.8,76,0.00,CLR,,0.04,WeatherDisplay:10.37,2013-11-14 04:37:00,
2013-11-13 23:42:00,25.9,19.4,30.24,West,261,9.2,9.2,76,0.00,CLR,,0.04,WeatherDisplay:10.37,2013-11-14 04:42:00,
2013-11-13 23:47:00,25.9,19.4,30.24,North,357,10.5,10.5,76,0.00,CLR,,0.04,WeatherDisplay:10.37,2013-11-14 04:47:00,
2013-11-13 23:52:00,25.9,19.4,30.24,West,270,11.5,11.5,76,0.00,CLR,,0.04,WeatherDisplay:10.37,2013-11-14 04:52:00,
2013-11-13 23:57:00,25.9,19.4,30.24,West,273,11.5,11.5,76,0.00,CLR,,0.04,WeatherDisplay:10.37,2013-11-14 04:57:00,